Time;durP1;ratioP1;P1;durP2;ratioP2;P2;SDS_P1;SDS_P2;PMS_P1;PMS_P2;Temp;Humidity;BMP_temperature;BMP_pressure;BME280_temperature;BME280_humidity;BME280_pressure;Samples;Min_cycle;Max_cycle;Signal;HPM_P1;HPM_P2
2021/09/30 00:02:17;;;;;;;;;1.00;1.00;;;;;20.57;39.34;102337.56;5076537;27;45486;-53
2021/09/30 00:04:43;;;;;;;;;1.75;1.00;;;;;20.54;39.22;102339.38;5076167;27;45433;-53
2021/09/30 00:07:08;;;;;;;;;0.25;0.25;;;;;20.55;39.22;102340.25;5075871;27;50113;-52
2021/09/30 00:09:39;;;;;;;;;0.50;0.50;;;;;20.57;39.01;102335.75;5076351;27;45284;-52
2021/09/30 00:12:10;;;;;;;;;0.00;0.00;;;;;20.54;38.93;102334.09;5076386;27;45449;-53
2021/09/30 00:46:44;;;;;;;;;2.50;1.00;;;;;20.49;38.72;102330.75;5079532;28;45211;-54
2021/09/30 00:51:46;;;;;;;;;0.25;0.25;;;;;20.50;39.32;102340.38;5079363;27;45330;-53
2021/09/30 01:29:53;;;;;;;;;1.25;0.00;;;;;20.43;38.81;102304.59;5078803;28;45317;-54
2021/09/30 02:21:23;;;;;;;;;1.00;1.00;;;;;20.33;38.81;102306.69;5054354;27;45226;-55
2021/09/30 02:59:25;;;;;;;;;0.50;0.50;;;;;20.29;38.74;102283.97;5076980;28;45471;-57
2021/09/30 03:01:52;;;;;;;;;0.00;0.00;;;;;20.26;38.82;102268.28;5077140;27;45760;-54
2021/09/30 03:04:20;;;;;;;;;0.00;0.00;;;;;20.29;39.00;102270.81;5077329;27;45233;-55
2021/09/30 03:06:47;;;;;;;;;0.00;0.00;;;;;20.29;39.02;102275.19;5093134;27;45451;-54
2021/09/30 03:09:13;;;;;;;;;1.00;1.00;;;;;20.29;38.71;102272.56;5076929;27;45659;-55
2021/09/30 03:11:45;;;;;;;;;1.25;1.25;;;;;20.28;38.94;102279.63;5076886;27;45622;-53
2021/09/30 03:14:11;;;;;;;;;1.00;1.00;;;;;20.26;38.75;102273.53;5077057;27;45219;-53
2021/09/30 03:16:47;;;;;;;;;1.00;1.00;;;;;20.27;38.76;102282.31;5077372;27;45562;-54
2021/09/30 03:24:30;;;;;;;;;1.50;1.50;;;;;20.24;39.12;102286.75;5076940;28;45377;-53
2021/09/30 03:26:56;;;;;;;;;0.00;0.00;;;;;20.26;39.08;102291.13;5076953;28;45562;-54
2021/09/30 03:29:22;;;;;;;;;0.00;0.00;;;;;20.26;39.03;102291.13;5076600;27;45394;-55
2021/09/30 03:31:49;;;;;;;;;1.50;0.00;;;;;20.24;39.02;102289.38;5092479;27;45778;-55
2021/09/30 03:34:15;;;;;;;;;0.00;0.00;;;;;20.23;38.70;102284.16;5077015;27;45248;-55
2021/09/30 03:36:41;;;;;;;;;0.50;0.50;;;;;20.24;38.98;102283.25;5076892;27;45541;-56
2021/09/30 03:39:12;;;;;;;;;0.50;0.50;;;;;20.22;39.19;102275.41;5076728;27;45485;-54
2021/09/30 03:41:40;;;;;;;;;1.25;1.00;;;;;20.19;38.74;102274.66;5076794;27;45898;-54
2021/09/30 03:44:06;;;;;;;;;1.75;1.00;;;;;20.22;39.36;102282.47;5076883;27;45377;-52
2021/09/30 03:46:32;;;;;;;;;0.75;0.75;;;;;20.21;39.38;102283.38;5092636;27;45521;-54
2021/09/30 03:48:58;;;;;;;;;0.00;0.00;;;;;20.20;38.68;102292.16;5075017;28;47242;-55
2021/09/30 03:51:48;;;;;;;;;1.75;1.75;;;;;20.19;38.86;102293.06;5076411;28;45413;-55
2021/09/30 03:57:23;;;;;;;;;2.00;2.00;;;;;20.18;39.02;102297.47;5076556;27;45276;-55
2021/09/30 03:59:37;;;;;;;;;4.00;1.00;;;;;20.17;39.36;102294.88;5076184;28;46891;-55
2021/09/30 04:02:03;;;;;;;;;1.50;1.00;;;;;20.16;38.97;102301.06;5077921;27;45897;-55
2021/09/30 04:04:34;;;;;;;;;2.00;0.00;;;;;20.15;39.14;102304.59;5080058;27;45158;-55
2021/09/30 04:07:03;;;;;;;;;3.75;2.00;;;;;20.14;39.22;102302.88;5080242;27;45422;-56
2021/09/30 04:09:29;;;;;;;;;2.00;0.75;;;;;20.14;39.07;102310.75;5079736;27;47050;-57
2021/09/30 04:12:03;;;;;;;;;1.00;1.00;;;;;20.14;38.82;102314.28;5079881;28;45223;-55
2021/09/30 04:14:29;;;;;;;;;1.00;1.00;;;;;20.13;39.03;102304.66;5079962;27;45340;-56
2021/09/30 04:16:55;;;;;;;;;2.00;2.00;;;;;20.14;39.20;102313.41;5079892;27;45213;-56
2021/09/30 04:19:22;;;;;;;;;1.00;1.00;;;;;20.13;39.25;102316.94;5079529;27;46058;-56
2021/09/30 04:21:49;;;;;;;;;2.00;1.00;;;;;20.12;39.41;102309.97;5079632;27;45716;-55
2021/09/30 04:24:15;;;;;;;;;1.25;1.00;;;;;20.11;38.92;102306.47;5078479;28;45352;-54
2021/09/30 04:26:41;;;;;;;;;1.25;1.00;;;;;20.11;39.18;102308.25;5080073;27;45519;-55
2021/09/30 04:29:07;;;;;;;;;1.00;1.00;;;;;20.11;39.15;102306.47;5079462;27;46208;-56
2021/09/30 04:31:33;;;;;;;;;1.75;0.25;;;;;20.09;39.37;102310.91;5079456;28;45368;-56
2021/09/30 04:33:58;;;;;;;;;0.00;0.00;;;;;20.08;38.97;102310.06;5079540;27;45177;-56
2021/09/30 04:36:24;;;;;;;;;1.00;1.00;;;;;20.08;38.89;102315.31;5079630;27;45309;-54
2021/09/30 04:38:49;;;;;;;;;0.75;0.50;;;;;20.08;39.34;102315.31;5079391;27;45633;-56
2021/09/30 04:41:16;;;;;;;;;2.00;2.00;;;;;20.08;39.24;102325.84;5079246;28;45215;-56
2021/09/30 04:43:41;;;;;;;;;2.25;1.00;;;;;20.06;39.39;102314.50;5079749;27;45241;-56
2021/09/30 04:46:06;;;;;;;;;1.50;1.00;;;;;20.06;39.02;102309.22;5079453;27;45635;-56
2021/09/30 04:48:32;;;;;;;;;1.75;1.50;;;;;20.05;39.41;102304.88;5079058;27;46446;-56
2021/09/30 04:50:57;;;;;;;;;2.00;1.25;;;;;20.05;38.99;102299.63;5077766;28;45888;-56
2021/09/30 04:53:22;;;;;;;;;1.25;1.25;;;;;20.05;39.22;102299.63;5079294;27;45357;-55
2021/09/30 04:55:48;;;;;;;;;2.00;1.50;;;;;20.05;39.32;102293.50;5079576;27;45508;-55
2021/09/30 04:58:13;;;;;;;;;4.00;1.00;;;;;20.06;39.17;102287.34;5078944;27;46521;-56
2021/09/30 05:00:39;;;;;;;;;0.75;0.75;;;;;20.05;39.06;102288.25;5078939;28;45401;-57
2021/09/30 05:03:05;;;;;;;;;1.75;0.75;;;;;20.05;39.67;102291.72;5078922;28;45380;-57
2021/09/30 05:05:30;;;;;;;;;1.75;1.75;;;;;20.05;39.22;102296.13;5079234;27;45426;-57
2021/09/30 05:07:55;;;;;;;;;2.00;1.00;;;;;20.03;39.19;102303.22;5078835;27;45442;-57
2021/09/30 05:10:22;;;;;;;;;1.00;0.75;;;;;20.04;39.00;102307.56;5078749;28;45322;-57
2021/09/30 05:12:49;;;;;;;;;1.00;1.00;;;;;20.02;39.23;102302.31;5077873;27;45361;-56
2021/09/30 05:15:15;;;;;;;;;1.50;1.00;;;;;20.02;38.82;102298.84;5078846;27;45293;-56
2021/09/30 05:17:40;;;;;;;;;2.00;1.00;;;;;20.01;38.90;102305.88;5078862;27;46356;-56
2021/09/30 05:20:06;;;;;;;;;1.00;1.00;;;;;20.01;39.60;102305.88;5078554;27;45305;-56
2021/09/30 05:22:32;;;;;;;;;1.00;1.00;;;;;20.00;39.38;102306.81;5078665;27;45279;-56
2021/09/30 05:24:57;;;;;;;;;1.25;1.25;;;;;20.00;38.94;102308.56;5078839;27;45529;-55
2021/09/30 05:27:23;;;;;;;;;3.00;1.00;;;;;19.99;39.32;102312.97;5078503;27;45456;-56
2021/09/30 05:29:48;;;;;;;;;1.50;1.50;;;;;19.99;39.38;102310.34;5078138;27;45319;-56
2021/09/30 05:32:13;;;;;;;;;1.50;1.50;;;;;19.98;39.51;102300.72;5078831;27;45549;-55
2021/09/30 05:34:41;;;;;;;;;1.00;1.00;;;;;19.98;39.62;102303.34;5078540;27;45599;-56
2021/09/30 05:37:06;;;;;;;;;2.50;2.50;;;;;19.97;39.25;102311.28;5078295;27;45786;-56
2021/09/30 05:39:31;;;;;;;;;2.00;1.25;;;;;19.94;39.57;102306.97;5078369;27;45316;-57
2021/09/30 05:41:58;;;;;;;;;4.50;1.75;;;;;19.95;39.10;102308.69;5078344;27;45342;-55
2021/09/30 05:44:24;;;;;;;;;2.00;2.00;;;;;19.94;39.31;102306.97;5078426;27;45350;-54
2021/09/30 05:46:56;;;;;;;;;4.75;2.25;;;;;19.95;39.16;102305.22;5078174;27;46364;-55
2021/09/30 05:49:23;;;;;;;;;1.25;1.00;;;;;19.94;38.94;102312.22;5078216;27;45776;-55
2021/09/30 05:51:48;;;;;;;;;2.25;2.25;;;;;19.95;39.32;102319.22;5078270;27;45230;-57
2021/09/30 05:54:14;;;;;;;;;1.00;1.00;;;;;19.93;39.07;102315.75;5078825;27;45246;-57
2021/09/30 05:56:40;;;;;;;;;3.00;1.75;;;;;19.93;39.27;102321.03;5077873;27;46249;-56
2021/09/30 05:59:05;;;;;;;;;2.00;2.00;;;;;19.93;39.19;102326.28;5077986;27;45458;-53
2021/09/30 06:14:47;;;;;;;;;2.00;2.00;;;;;19.91;39.30;102317.56;5078364;27;45332;-57
2021/09/30 06:17:12;;;;;;;;;2.00;2.00;;;;;19.89;39.29;102311.53;5077811;27;46237;-57
2021/09/30 06:19:38;;;;;;;;;2.25;2.00;;;;;19.90;39.34;102311.47;5093507;27;45358;-55
2021/09/30 06:22:09;;;;;;;;;3.50;2.00;;;;;19.91;39.21;102323.72;5077764;27;45411;-56
2021/09/30 06:24:36;;;;;;;;;3.25;3.25;;;;;19.89;39.15;102319.41;5076133;28;45323;-55
2021/09/30 06:27:03;;;;;;;;;4.00;2.50;;;;;19.90;39.49;102319.34;5077488;27;45684;-57
2021/09/30 06:29:29;;;;;;;;;2.25;2.00;;;;;19.90;39.43;102322.00;5077555;27;45557;-54
2021/09/30 06:31:55;;;;;;;;;3.75;3.00;;;;;19.89;39.01;102319.41;5077664;27;45440;-56
2021/09/30 06:34:20;;;;;;;;;5.25;4.00;;;;;19.89;39.10;102316.78;5077660;27;45552;-52
2021/09/30 06:36:45;;;;;;;;;3.00;3.00;;;;;19.87;39.14;102315.97;5076461;28;48028;-55
2021/09/30 06:39:11;;;;;;;;;3.00;3.00;;;;;19.87;39.33;102305.44;5077456;27;45421;-57
2021/09/30 06:41:37;;;;;;;;;4.50;4.00;;;;;19.89;39.63;102312.38;5077487;27;45292;-56
2021/09/30 06:44:02;;;;;;;;;2.00;2.00;;;;;19.91;39.49;102307.03;5077735;27;45367;-54
2021/09/30 06:46:28;;;;;;;;;4.25;3.25;;;;;19.89;39.26;102311.53;5077262;27;45229;-56
2021/09/30 06:48:53;;;;;;;;;3.75;3.75;;;;;19.87;39.13;102305.44;5077114;28;45286;-57
2021/09/30 06:51:19;;;;;;;;;4.50;2.00;;;;;19.87;39.16;102308.06;5077626;27;45458;-56
2021/09/30 06:53:45;;;;;;;;;3.25;2.75;;;;;19.88;39.40;102313.25;5077818;27;45583;-56
2021/09/30 06:56:16;;;;;;;;;4.25;3.00;;;;;19.87;39.48;102306.28;5077147;27;46594;-53
2021/09/30 06:58:44;;;;;;;;;3.75;3.75;;;;;19.86;39.04;102311.59;5077130;27;45330;-57
2021/09/30 07:01:10;;;;;;;;;3.75;3.75;;;;;19.85;39.30;102309.84;5077165;27;45387;-57
2021/09/30 07:03:36;;;;;;;;;3.25;3.00;;;;;19.86;39.06;102308.97;5077439;27;45245;-56
2021/09/30 07:06:02;;;;;;;;;3.00;3.00;;;;;19.86;39.44;102299.28;5092646;27;45557;-58
2021/09/30 07:08:28;;;;;;;;;4.75;2.50;;;;;19.85;39.43;102291.41;5076925;27;45350;-57
2021/09/30 07:10:53;;;;;;;;;5.50;4.00;;;;;19.84;39.35;102294.97;5092854;27;45440;-56
2021/09/30 07:13:18;;;;;;;;;4.25;4.00;;;;;19.85;39.39;102294.06;5077588;27;45464;-55
2021/09/30 07:15:44;;;;;;;;;3.50;3.50;;;;;19.85;38.83;102307.22;5075563;28;47163;-55
2021/09/30 07:18:17;;;;;;;;;6.00;4.25;;;;;19.83;39.24;102298.50;5076763;27;45248;-57
2021/09/30 07:20:43;;;;;;;;;5.50;3.75;;;;;19.82;39.51;102297.63;5077089;27;45290;-58
2021/09/30 07:23:08;;;;;;;;;7.00;3.50;;;;;19.82;39.51;102297.63;5077103;27;45640;-55
2021/09/30 07:25:34;;;;;;;;;4.50;4.50;;;;;19.82;39.03;102307.28;5076728;27;45359;-55
2021/09/30 07:27:59;;;;;;;;;6.00;4.75;;;;;19.81;39.42;102306.44;5076907;27;45417;-55
2021/09/30 07:30:25;;;;;;;;;4.50;3.75;;;;;19.82;39.63;102312.53;5076843;27;45429;-55
2021/09/30 07:32:50;;;;;;;;;5.25;4.75;;;;;19.84;39.51;102318.63;5077273;28;45544;-57
2021/09/30 07:35:16;;;;;;;;;4.75;4.75;;;;;19.84;39.15;102321.25;5077052;28;45369;-56
2021/09/30 07:37:41;;;;;;;;;6.00;6.00;;;;;19.84;39.39;102314.25;5075876;28;45464;-56
2021/09/30 07:40:07;;;;;;;;;4.50;4.00;;;;;19.84;39.12;102314.25;5076861;27;45274;-56
2021/09/30 07:42:33;;;;;;;;;5.25;5.25;;;;;19.87;39.18;102308.06;5076770;27;45549;-56
2021/09/30 07:44:58;;;;;;;;;6.00;4.00;;;;;19.87;39.23;102310.69;5076408;27;46189;-56
2021/09/30 07:47:24;;;;;;;;;5.75;4.00;;;;;19.86;38.92;102311.59;5076467;28;45373;-55
2021/09/30 07:49:51;;;;;;;;;8.25;5.75;;;;;19.88;38.82;102307.16;5076745;27;45319;-55
2021/09/30 07:52:16;;;;;;;;;5.00;4.75;;;;;19.89;39.30;102306.25;5092447;27;45387;-55
2021/09/30 07:54:41;;;;;;;;;3.50;3.00;;;;;19.89;39.06;102303.63;5076253;27;46232;-56
2021/09/30 07:57:07;;;;;;;;;3.75;3.75;;;;;19.90;39.39;102311.47;5076338;28;45433;-56
2021/09/30 07:59:33;;;;;;;;;4.25;4.25;;;;;19.91;39.36;102307.94;5076581;27;45571;-55
2021/09/30 08:01:58;;;;;;;;;6.75;3.00;;;;;19.92;38.81;102304.38;5076607;27;45411;-54
2021/09/30 08:04:23;;;;;;;;;2.75;2.75;;;;;19.93;38.95;102306.13;5076198;27;45593;-57
2021/09/30 08:06:49;;;;;;;;;3.75;3.00;;;;;19.96;39.12;102320.06;5076593;27;45401;-57
2021/09/30 08:09:14;;;;;;;;;3.00;3.00;;;;;19.95;39.53;102313.97;5076304;27;45422;-57
2021/09/30 08:11:39;;;;;;;;;5.00;3.50;;;;;19.95;39.20;102319.22;5076412;27;45603;-53
2021/09/30 08:14:05;;;;;;;;;4.50;3.50;;;;;19.97;38.85;102309.50;5076191;27;45271;-54
2021/09/30 08:16:30;;;;;;;;;3.50;3.50;;;;;19.98;38.99;102319.13;5075952;27;45326;-55
2021/09/30 08:18:58;;;;;;;;;4.75;3.00;;;;;19.98;39.02;102313.00;5076158;27;45429;-56
2021/09/30 08:21:23;;;;;;;;;3.50;3.50;;;;;20.00;39.22;102322.59;5076519;27;45454;-55
2021/09/30 08:23:49;;;;;;;;;4.25;3.00;;;;;20.01;38.99;102324.28;5076380;27;45227;-56
2021/09/30 08:26:18;;;;;;;;;4.75;2.75;;;;;20.01;38.58;102319.03;5075954;27;45352;-55
2021/09/30 08:28:49;;;;;;;;;3.50;3.25;;;;;20.03;38.90;102322.47;5076047;27;45331;-55
2021/09/30 08:31:15;;;;;;;;;4.00;2.00;;;;;20.03;38.96;102330.38;5091991;27;45297;-56
2021/09/30 08:33:42;;;;;;;;;7.00;3.00;;;;;20.04;39.41;102329.47;5075797;27;46358;-56
2021/09/30 08:36:12;;;;;;;;;2.00;2.00;;;;;20.05;39.04;102327.72;5075835;27;45909;-55
2021/09/30 08:38:38;;;;;;;;;2.25;2.25;;;;;20.05;39.28;102330.34;5076007;28;45296;-56
2021/09/30 08:41:03;;;;;;;;;4.50;2.50;;;;;20.07;38.81;102328.50;5076101;27;45427;-54
2021/09/30 08:43:29;;;;;;;;;5.00;3.75;;;;;20.06;38.87;102325.03;5075669;27;46105;-55
2021/09/30 08:45:54;;;;;;;;;4.50;3.75;;;;;20.05;38.94;102320.66;5075833;27;45189;-55
2021/09/30 08:48:20;;;;;;;;;2.00;2.00;;;;;20.10;39.46;102319.69;5077960;27;45747;-55
2021/09/30 08:50:46;;;;;;;;;3.00;3.00;;;;;20.10;38.90;102314.41;5079301;27;45353;-56
2021/09/30 08:53:13;;;;;;;;;3.75;3.00;;;;;20.10;39.00;102311.78;5078892;27;46270;-54
2021/09/30 08:55:39;;;;;;;;;3.25;1.25;;;;;20.12;38.97;102304.72;5078988;28;45976;-56
2021/09/30 08:58:07;;;;;;;;;4.75;2.25;;;;;20.11;38.69;102303.81;5079180;28;45436;-54
2021/09/30 09:00:35;;;;;;;;;3.75;2.50;;;;;20.14;38.88;102308.13;5079087;27;45351;-55
2021/09/30 09:03:01;;;;;;;;;2.50;2.00;;;;;20.14;38.98;102301.13;5078782;27;46710;-57
2021/09/30 09:05:27;;;;;;;;;2.25;2.25;;;;;20.14;39.27;102290.59;5078863;27;45421;-55
2021/09/30 09:07:55;;;;;;;;;3.00;3.00;;;;;20.16;38.69;102282.63;5079309;27;45408;-55
2021/09/30 09:10:23;;;;;;;;;3.75;2.00;;;;;20.17;39.26;102284.34;5079427;27;45417;-55
2021/09/30 09:13:12;;;;;;;;;2.50;2.50;;;;;20.17;39.01;102284.34;5078660;28;45388;-55
2021/09/30 09:15:38;;;;;;;;;2.25;2.25;;;;;20.19;39.07;102285.19;5078658;28;45331;-56
2021/09/30 09:18:27;;;;;;;;;4.75;2.00;;;;;20.21;39.26;102283.38;5078851;28;45350;-56
2021/09/30 09:21:23;;;;;;;;;1.75;1.00;;;;;20.20;38.75;102271.09;5079068;27;45342;-56
2021/09/30 09:23:52;;;;;;;;;3.00;1.50;;;;;20.22;38.91;102285.09;5078547;28;46513;-57
2021/09/30 09:26:19;;;;;;;;;2.00;2.00;;;;;20.21;38.65;102272.84;5078515;27;45711;-56
2021/09/30 09:29:14;;;;;;;;;2.00;2.00;;;;;20.24;38.98;102284.13;5078415;28;45448;-57
2021/09/30 09:31:51;;;;;;;;;1.50;1.50;;;;;20.25;39.01;102279.72;5078747;28;45983;-57
2021/09/30 09:34:31;;;;;;;;;3.00;2.00;;;;;20.25;38.68;102277.06;5078501;27;45751;-57
2021/09/30 09:37:19;;;;;;;;;2.00;2.00;;;;;20.26;38.91;102276.16;5078944;27;45215;-56
2021/09/30 09:39:44;;;;;;;;;1.25;1.25;;;;;20.27;38.76;102267.34;5078441;28;45563;-56
2021/09/30 09:42:14;;;;;;;;;1.00;1.00;;;;;20.28;38.89;102274.34;5078661;27;46004;-57
2021/09/30 09:45:16;;;;;;;;;1.75;1.75;;;;;20.28;38.28;102279.63;5078099;27;45564;-55
2021/09/30 09:47:44;;;;;;;;;1.00;1.00;;;;;20.28;38.53;102277.00;5056042;27;45848;-56
2021/09/30 09:50:19;;;;;;;;;2.00;1.00;;;;;20.29;38.70;102270.81;5078260;27;45327;-55
2021/09/30 09:52:44;;;;;;;;;3.50;2.00;;;;;20.31;38.35;102276.91;5078458;27;45570;-55
2021/09/30 09:55:41;;;;;;;;;1.00;1.00;;;;;20.31;38.85;102276.03;5078114;28;45638;-55
2021/09/30 09:58:13;;;;;;;;;4.25;2.00;;;;;20.31;38.35;102278.66;5077692;27;45245;-56
2021/09/30 10:00:41;;;;;;;;;2.50;1.50;;;;;20.33;38.40;102282.09;5077311;28;45352;-57
2021/09/30 10:03:12;;;;;;;;;1.50;1.50;;;;;20.33;38.44;102275.09;5078332;27;45327;-55
2021/09/30 10:05:39;;;;;;;;;1.00;1.00;;;;;20.32;38.72;102262.81;5093461;27;46225;-56
2021/09/30 10:08:06;;;;;;;;;0.75;0.75;;;;;20.35;38.42;102265.34;5077959;27;45630;-54
2021/09/30 10:10:31;;;;;;;;;2.25;1.75;;;;;20.36;38.07;102266.22;5077968;27;45336;-56
2021/09/30 10:12:57;;;;;;;;;0.00;0.00;;;;;20.36;38.75;102264.44;5078400;27;45614;-57
2021/09/30 10:15:22;;;;;;;;;0.25;0.25;;;;;20.37;38.13;102262.69;5077615;27;46591;-57
2021/09/30 10:17:48;;;;;;;;;1.00;1.00;;;;;20.39;38.54;102271.41;5077815;27;45442;-58
2021/09/30 10:20:14;;;;;;;;;1.75;1.00;;;;;20.38;38.41;102265.25;5077892;27;45356;-57
2021/09/30 10:22:41;;;;;;;;;0.00;0.00;;;;;20.37;38.72;102263.53;5077942;27;45474;-57
2021/09/30 10:25:07;;;;;;;;;1.00;1.00;;;;;20.39;38.22;102266.97;5077503;28;46463;-56
2021/09/30 10:27:36;;;;;;;;;0.00;0.00;;;;;20.39;38.25;102256.44;5077570;27;45400;-55
2021/09/30 10:30:02;;;;;;;;;0.25;0.25;;;;;20.42;38.39;102259.91;5077472;27;45453;-56
2021/09/30 10:32:29;;;;;;;;;1.00;1.00;;;;;20.43;38.48;102256.34;5078073;27;45334;-56
2021/09/30 10:35:03;;;;;;;;;2.00;1.00;;;;;20.42;38.31;102259.91;5077405;27;45428;-55
2021/09/30 10:37:33;;;;;;;;;0.00;0.00;;;;;20.43;38.25;102259.84;5077693;27;45817;-56
2021/09/30 10:40:19;;;;;;;;;2.50;1.00;;;;;20.45;37.96;102259.81;5077934;27;45422;-55
2021/09/30 10:42:57;;;;;;;;;0.25;0.25;;;;;20.46;37.95;102250.97;5077749;28;45450;-57
2021/09/30 10:45:42;;;;;;;;;0.50;0.25;;;;;20.45;38.11;102244.00;5077294;27;45372;-56
2021/09/30 10:48:28;;;;;;;;;0.00;0.00;;;;;20.45;38.54;102244.00;5076990;27;45335;-57
2021/09/30 10:50:59;;;;;;;;;1.00;1.00;;;;;20.47;38.14;102247.41;5077498;27;45410;-55
2021/09/30 10:53:46;;;;;;;;;0.75;0.75;;;;;20.47;38.46;102248.31;5077500;27;45370;-55
2021/09/30 10:56:39;;;;;;;;;0.00;0.00;;;;;20.48;38.08;102241.25;5077176;28;45266;-56
2021/09/30 10:59:08;;;;;;;;;0.00;0.00;;;;;20.48;38.50;102241.25;5077183;27;45408;-56
2021/09/30 11:01:45;;;;;;;;;0.50;0.50;;;;;20.44;38.56;102216.78;5077198;27;45475;-56
2021/09/30 11:04:11;;;;;;;;;1.00;1.00;;;;;20.47;38.21;102219.31;5077475;27;45413;-56
2021/09/30 11:06:37;;;;;;;;;1.00;1.00;;;;;20.49;38.57;102214.00;5077013;27;45611;-55
2021/09/30 11:09:16;;;;;;;;;0.00;0.00;;;;;20.49;38.46;102214.88;5077215;27;45824;-55
2021/09/30 11:11:48;;;;;;;;;0.00;0.00;;;;;20.49;38.14;102203.47;5075878;27;45330;-56
2021/09/30 11:14:15;;;;;;;;;2.00;1.00;;;;;20.51;38.29;102206.91;5075953;28;45243;-56
2021/09/30 11:16:45;;;;;;;;;2.00;0.25;;;;;20.51;38.36;102201.66;5076886;27;46341;-57
2021/09/30 11:19:33;;;;;;;;;2.00;1.00;;;;;20.53;38.09;102197.19;5076788;27;45752;-56
2021/09/30 11:22:05;;;;;;;;;1.50;1.50;;;;;20.53;38.16;102191.94;5077232;27;45375;-55
2021/09/30 11:24:37;;;;;;;;;0.75;0.50;;;;;20.55;38.01;102188.31;5077315;27;45449;-55
2021/09/30 11:27:03;;;;;;;;;1.00;0.00;;;;;20.57;38.25;102190.03;5077023;27;45362;-55
2021/09/30 11:29:29;;;;;;;;;1.00;1.00;;;;;20.57;38.09;102185.63;5077058;27;45366;-56
2021/09/30 11:31:57;;;;;;;;;0.75;0.75;;;;;20.58;38.02;102178.59;5076837;27;45279;-55
2021/09/30 11:34:37;;;;;;;;;1.25;1.00;;;;;20.58;37.91;102175.97;5077028;27;45659;-54
2021/09/30 11:37:16;;;;;;;;;1.00;1.00;;;;;20.59;38.01;102175.06;5076630;27;46462;-55
2021/09/30 11:39:43;;;;;;;;;1.50;1.00;;;;;20.58;38.26;102176.81;5076559;27;45276;-55
2021/09/30 11:42:08;;;;;;;;;0.00;0.00;;;;;20.59;38.14;102178.53;5076706;27;45536;-55
2021/09/30 11:44:34;;;;;;;;;0.00;0.00;;;;;20.59;37.96;102181.16;5076876;27;45544;-54
2021/09/30 11:47:00;;;;;;;;;0.50;0.50;;;;;20.59;37.98;102181.16;5076728;27;45379;-55
2021/09/30 11:49:27;;;;;;;;;2.00;2.00;;;;;20.60;37.91;102179.41;5076783;27;45377;-55
2021/09/30 11:51:55;;;;;;;;;0.00;0.00;;;;;20.60;37.64;102167.09;5076554;27;45485;-54
2021/09/30 11:54:33;;;;;;;;;0.00;0.00;;;;;20.60;37.90;102175.00;5076708;27;45546;-56
2021/09/30 11:56:58;;;;;;;;;3.00;0.00;;;;;20.58;38.06;102163.63;5076434;27;45431;-55
2021/09/30 11:59:25;;;;;;;;;0.00;0.00;;;;;20.61;37.87;102171.44;5076194;27;45288;-54
2021/09/30 12:01:53;;;;;;;;;1.25;0.00;;;;;20.62;37.86;102161.75;5076592;27;45242;-55
2021/09/30 12:04:44;;;;;;;;;1.00;0.00;;;;;20.64;37.37;102165.19;5076627;27;45294;-54
2021/09/30 12:07:17;;;;;;;;;1.00;1.00;;;;;20.63;37.96;102153.81;5074763;28;47452;-55
2021/09/30 12:09:42;;;;;;;;;0.00;0.00;;;;;20.63;37.29;102159.09;5076242;27;45779;-55
2021/09/30 12:12:08;;;;;;;;;1.00;0.75;;;;;20.63;37.42;102159.09;5074965;28;45400;-54
2021/09/30 12:14:39;;;;;;;;;1.25;1.25;;;;;20.64;37.75;102141.50;5092497;27;45220;-55
2021/09/30 12:17:08;;;;;;;;;2.25;0.25;;;;;20.65;37.71;102133.56;5076482;28;45447;-56
2021/09/30 12:19:36;;;;;;;;;0.50;0.50;;;;;20.65;37.92;102130.03;5076416;27;45658;-56
2021/09/30 12:22:08;;;;;;;;;1.50;1.00;;;;;20.63;37.14;102118.69;5076674;27;45199;-55
2021/09/30 12:24:33;;;;;;;;;1.00;1.00;;;;;20.63;37.56;102106.41;5080203;27;45268;-55
2021/09/30 12:26:59;;;;;;;;;0.00;0.00;;;;;20.64;37.10;102102.84;5078167;28;46754;-55
2021/09/30 12:29:24;;;;;;;;;0.00;0.00;;;;;20.63;37.17;102098.50;5079585;28;45254;-55
2021/09/30 12:32:07;;;;;;;;;0.75;0.75;;;;;20.66;37.63;102103.66;5079722;27;45251;-55
2021/09/30 12:34:33;;;;;;;;;0.00;0.00;;;;;20.66;37.35;102111.56;5080051;27;45619;-54
2021/09/30 12:36:59;;;;;;;;;0.00;0.00;;;;;20.67;37.59;102101.88;5079270;27;46718;-53
2021/09/30 12:39:29;;;;;;;;;0.00;0.00;;;;;20.67;37.49;102097.44;5079430;27;45226;-54
2021/09/30 12:42:09;;;;;;;;;0.50;0.50;;;;;20.66;37.35;102089.63;5079474;27;45346;-55
2021/09/30 12:44:35;;;;;;;;;0.00;0.00;;;;;20.67;37.32;102092.19;5080009;27;45329;-57
2021/09/30 12:47:00;;;;;;;;;2.50;1.50;;;;;20.68;36.91;102091.28;5079202;27;45270;-56
2021/09/30 12:49:26;;;;;;;;;0.25;0.25;;;;;20.67;36.88;102092.19;5079085;28;45372;-56
2021/09/30 12:51:51;;;;;;;;;2.50;0.25;;;;;20.65;37.30;102066.81;5079329;27;45837;-55
2021/09/30 12:54:27;;;;;;;;;0.50;0.00;;;;;20.68;36.82;102078.09;5095403;27;45291;-54
2021/09/30 12:56:52;;;;;;;;;0.75;0.75;;;;;20.67;37.35;102073.75;5079029;27;46339;-55
2021/09/30 12:59:19;;;;;;;;;2.50;1.00;;;;;20.69;36.89;102081.63;5079158;27;45496;-54
2021/09/30 13:01:44;;;;;;;;;0.25;0.25;;;;;20.69;37.13;102077.19;5079199;27;45432;-54
2021/09/30 13:04:22;;;;;;;;;0.00;0.00;;;;;20.70;37.18;102075.44;5079243;27;45542;-56
2021/09/30 13:07:03;;;;;;;;;0.00;0.00;;;;;20.70;36.77;102057.84;5078739;27;47472;-56
2021/09/30 13:09:34;;;;;;;;;1.00;1.00;;;;;20.70;37.27;102059.63;5094448;27;45736;-56
2021/09/30 13:12:00;;;;;;;;;1.00;1.00;;;;;20.71;36.99;102053.44;5077757;28;45291;-56
2021/09/30 13:14:29;;;;;;;;;3.50;1.75;;;;;20.72;36.75;102043.75;5079081;27;45169;-54
2021/09/30 13:17:20;;;;;;;;;0.50;0.50;;;;;20.70;37.41;102038.56;5078854;27;46213;-55
2021/09/30 13:19:47;;;;;;;;;0.00;0.00;;;;;20.72;36.67;102035.84;5078914;27;45312;-56
2021/09/30 13:22:16;;;;;;;;;0.00;0.00;;;;;20.73;36.86;102033.16;5078889;27;45323;-52
2021/09/30 13:24:42;;;;;;;;;2.00;1.00;;;;;20.73;36.52;102024.41;5079003;27;45572;-56
2021/09/30 13:27:10;;;;;;;;;1.00;1.00;;;;;20.74;36.58;102032.25;5078909;27;47413;-55
2021/09/30 13:29:35;;;;;;;;;0.25;0.25;;;;;20.73;36.90;102027.03;5079037;27;45255;-54
2021/09/30 13:32:01;;;;;;;;;0.25;0.25;;;;;20.74;37.09;102026.13;5078663;27;45220;-55
2021/09/30 13:34:27;;;;;;;;;0.00;0.00;;;;;20.76;36.57;102029.59;5077794;27;45490;-55
2021/09/30 13:36:52;;;;;;;;;0.75;0.75;;;;;20.75;36.66;102023.44;5078419;27;46024;-54
2021/09/30 13:39:18;;;;;;;;;0.00;0.00;;;;;20.74;36.58;102016.47;5094239;27;45298;-56
2021/09/30 13:41:44;;;;;;;;;1.00;0.50;;;;;20.76;36.71;102016.41;5078557;27;45264;-53
2021/09/30 13:44:10;;;;;;;;;0.25;0.25;;;;;20.74;36.58;102012.94;5078770;27;45272;-55
2021/09/30 13:46:36;;;;;;;;;0.00;0.00;;;;;20.74;36.91;102010.31;5078563;28;47005;-54
2021/09/30 13:49:01;;;;;;;;;0.25;0.00;;;;;20.73;36.23;102005.97;5078367;27;45322;-55
2021/09/30 13:51:31;;;;;;;;;0.50;0.00;;;;;20.73;36.59;102008.59;5078404;27;45413;-54
2021/09/30 13:53:58;;;;;;;;;1.00;0.00;;;;;20.73;36.06;102000.69;5078520;27;45199;-54
2021/09/30 13:56:25;;;;;;;;;0.00;0.00;;;;;20.72;35.97;101998.97;5078101;27;45645;-54
2021/09/30 13:58:50;;;;;;;;;0.50;0.00;;;;;20.69;36.05;101994.69;5078246;27;45818;-56
2021/09/30 14:01:17;;;;;;;;;0.00;0.00;;;;;20.69;35.96;101995.53;5078121;27;45752;-56
2021/09/30 14:03:43;;;;;;;;;0.25;0.25;;;;;20.70;35.75;101985.88;5078559;27;45482;-56
2021/09/30 14:06:09;;;;;;;;;1.00;1.00;;;;;20.70;36.01;101980.59;5094202;27;46617;-56
2021/09/30 14:08:35;;;;;;;;;0.50;0.00;;;;;20.69;36.31;101971.81;5077906;27;45791;-55
2021/09/30 14:11:00;;;;;;;;;1.00;1.00;;;;;20.70;36.22;101959.50;5078152;27;45316;-55
2021/09/30 14:13:26;;;;;;;;;0.00;0.00;;;;;20.69;36.00;101961.28;5078388;27;45413;-54
2021/09/30 14:15:51;;;;;;;;;1.00;0.00;;;;;20.68;36.15;101961.34;5077905;27;46483;-54
2021/09/30 14:18:17;;;;;;;;;0.00;0.00;;;;;20.68;36.25;101956.91;5077988;27;45225;-54
2021/09/30 14:20:43;;;;;;;;;0.00;0.00;;;;;20.68;36.05;101946.38;5077989;27;45266;-54
2021/09/30 14:23:08;;;;;;;;;0.00;0.00;;;;;20.69;35.89;101947.25;5078462;28;45534;-53
2021/09/30 14:25:33;;;;;;;;;1.00;0.00;;;;;20.69;35.78;101942.84;5077651;27;46438;-55
2021/09/30 14:27:59;;;;;;;;;0.00;0.00;;;;;20.69;36.22;101932.31;5077718;28;45351;-56